createdAt,value
2023-05-04T00:00:28.863Z,12.6
2023-05-04T00:02:28.663Z,12.4
2023-05-04T00:04:28.349Z,13.8
2023-05-04T00:06:28.097Z,12.6
2023-05-04T00:10:27.662Z,13.2
2023-05-04T00:14:27.159Z,12.3
2023-05-04T00:18:26.665Z,14.2
2023-05-04T00:20:26.417Z,12.4
2023-05-04T00:22:26.185Z,12.2
2023-05-04T00:24:25.939Z,13.9
2023-05-04T00:26:25.746Z,13.1
2023-05-04T00:28:25.248Z,12.6
2023-05-04T00:30:25.135Z,13.4
2023-05-04T00:32:25.226Z,11.1
2023-05-04T00:34:24.561Z,16.9
2023-05-04T00:36:24.244Z,12.4
2023-05-04T00:38:24.037Z,15.6
2023-05-04T00:40:23.881Z,11.5
2023-05-04T00:42:23.607Z,13.3
2023-05-04T00:44:23.469Z,13.1
2023-05-04T00:46:22.965Z,12.4
2023-05-04T00:52:23.571Z,13.4
2023-05-04T00:54:22.347Z,11.1
2023-05-04T00:56:22.861Z,14.6
2023-05-04T00:58:21.480Z,12.4
2023-05-04T01:00:21.527Z,13.4
2023-05-04T01:02:20.747Z,11.9
2023-05-04T01:04:20.613Z,12.9
2023-05-04T01:06:29.256Z,13.7
2023-05-04T01:08:26.549Z,11.8
2023-05-04T01:10:26.293Z,14.1
2023-05-04T01:12:25.088Z,12.1
2023-05-04T01:14:20.903Z,11.8
2023-05-04T01:16:19.648Z,11.8
2023-05-04T01:18:18.692Z,13.2
2023-05-04T01:20:18.568Z,14.9
2023-05-04T01:22:18.368Z,15.3
2023-05-04T01:24:18.775Z,14.7
2023-05-04T01:26:23.468Z,13.0
2023-05-04T01:28:19.902Z,15.7
2023-05-04T01:30:22.866Z,13.4
2023-05-04T01:32:18.513Z,13.2
2023-05-04T01:34:16.895Z,13.9
2023-05-04T01:36:17.354Z,12.9
2023-05-04T01:38:16.264Z,15.9
2023-05-04T01:40:15.756Z,12.7
2023-05-04T01:42:15.549Z,16.8
2023-05-04T01:44:15.613Z,12.3
2023-05-04T01:46:15.147Z,11.8
2023-05-04T01:48:14.613Z,12.5
2023-05-04T01:50:14.601Z,12.0
2023-05-04T01:52:14.002Z,13.0
2023-05-04T01:54:14.007Z,15.1
2023-05-04T01:56:13.489Z,14.2
2023-05-04T01:58:13.353Z,18.9
2023-05-04T02:00:14.667Z,12.9
2023-05-04T02:02:12.893Z,13.3
2023-05-04T02:04:12.509Z,13.8
2023-05-04T02:06:12.258Z,15.5
2023-05-04T02:08:11.863Z,15.0
2023-05-04T02:10:11.654Z,13.4
2023-05-04T02:12:11.449Z,16.3
2023-05-04T02:14:11.058Z,14.7
2023-05-04T02:20:11.993Z,17.7
2023-05-04T02:22:10.069Z,13.6
2023-05-04T02:24:09.764Z,15.2
2023-05-04T02:26:10.150Z,13.5
2023-05-04T02:28:09.250Z,16.2
2023-05-04T02:30:09.732Z,15.0
2023-05-04T02:32:08.743Z,12.4
2023-05-04T02:34:08.491Z,15.3
2023-05-04T02:36:08.671Z,12.6
2023-05-04T02:38:08.034Z,16.1
2023-05-04T02:40:08.359Z,13.4
2023-05-04T02:42:07.385Z,13.7
2023-05-04T02:44:07.274Z,14.1
2023-05-04T02:46:07.232Z,14.9
2023-05-04T02:48:06.608Z,14.8
2023-05-04T02:50:07.564Z,14.9
2023-05-04T02:52:05.980Z,14.6
2023-05-04T02:54:07.347Z,14.5
2023-05-04T02:56:05.845Z,14.3
2023-05-04T02:58:05.624Z,15.1
2023-05-04T03:00:06.812Z,14.3
2023-05-04T03:02:04.545Z,14.9
2023-05-04T03:04:06.232Z,13.6
2023-05-04T03:06:04.090Z,13.1
2023-05-04T03:08:04.144Z,15.8
2023-05-04T03:10:04.036Z,13.2
2023-05-04T03:12:03.368Z,13.9
2023-05-04T03:14:02.796Z,16.3
2023-05-04T03:16:04.510Z,15.3
2023-05-04T03:18:02.417Z,14.0
2023-05-04T03:20:02.545Z,13.3
2023-05-04T03:22:01.993Z,13.8
2023-05-04T03:24:01.308Z,17.1
2023-05-04T03:26:01.159Z,15.1
2023-05-04T03:28:00.621Z,14.1
2023-05-04T03:30:00.246Z,15.1
2023-05-04T03:32:00.073Z,15.5
2023-05-04T03:33:59.826Z,14.4
2023-05-04T03:35:59.461Z,16.2
2023-05-04T03:39:58.685Z,17.3
2023-05-04T03:41:58.423Z,13.6
2023-05-04T03:43:58.106Z,12.9
2023-05-04T03:45:57.899Z,14.4
2023-05-04T03:47:57.628Z,16.9
2023-05-04T03:49:57.053Z,14.2
2023-05-04T03:51:56.819Z,13.2
2023-05-04T03:53:56.593Z,15.1
2023-05-04T03:55:56.114Z,16.4
2023-05-04T03:57:55.970Z,13.3
2023-05-04T03:59:57.122Z,16.0
2023-05-04T04:01:55.313Z,15.0
2023-05-04T04:03:54.885Z,13.8
2023-05-04T04:09:53.906Z,15.4
2023-05-04T04:11:53.494Z,16.7
2023-05-04T04:13:53.346Z,14.3
2023-05-04T04:15:53.232Z,15.0
2023-05-04T04:17:52.850Z,16.5
2023-05-04T04:19:52.190Z,16.8
2023-05-04T04:21:52.056Z,15.4
2023-05-04T04:23:51.637Z,12.9
2023-05-04T04:25:52.781Z,15.5
2023-05-04T04:27:50.920Z,17.7
2023-05-04T04:29:50.764Z,14.0
2023-05-04T04:31:50.596Z,18.1
2023-05-04T04:33:50.356Z,12.7
2023-05-04T04:39:49.050Z,15.4
2023-05-04T04:41:48.667Z,14.9
2023-05-04T04:45:48.239Z,14.6
2023-05-04T04:47:48.044Z,17.2
2023-05-04T04:49:47.836Z,29.1
2023-05-04T04:57:46.236Z,13.6
2023-05-04T04:59:46.206Z,15.8
2023-05-04T05:01:45.584Z,16.3
2023-05-04T05:03:45.535Z,14.4
2023-05-04T05:05:44.989Z,17.2
2023-05-04T05:07:44.685Z,16.4
2023-05-04T05:09:44.530Z,16.7
2023-05-04T05:11:43.952Z,15.2
2023-05-04T05:13:43.659Z,16.4
2023-05-04T05:17:43.004Z,14.8
2023-05-04T05:19:42.795Z,14.6
2023-05-04T05:21:42.358Z,15.1
2023-05-04T05:23:42.122Z,14.4
2023-05-04T05:25:42.952Z,14.9
2023-05-04T05:27:41.424Z,14.3
2023-05-04T05:29:41.095Z,13.8
2023-05-04T05:31:40.806Z,18.0
2023-05-04T05:33:40.512Z,14.7
2023-05-04T05:35:40.287Z,14.6
2023-05-04T05:37:40.061Z,14.8
2023-05-04T05:39:39.817Z,14.8
2023-05-04T05:41:39.259Z,14.6
2023-05-04T05:43:38.980Z,15.2
2023-05-04T05:45:38.813Z,14.9
2023-05-04T05:47:38.523Z,15.4
2023-05-04T05:49:38.077Z,13.8
2023-05-04T05:51:37.810Z,16.8
2023-05-04T05:53:37.917Z,14.9
2023-05-04T05:55:37.294Z,16.8
2023-05-04T05:57:36.945Z,15.2
2023-05-04T05:59:36.818Z,13.8
2023-05-04T06:01:36.294Z,14.9
2023-05-04T06:03:36.107Z,13.7
2023-05-04T06:05:35.729Z,13.2
2023-05-04T06:07:35.675Z,16.2
2023-05-04T06:09:35.717Z,15.7
2023-05-04T06:11:34.944Z,12.9
2023-05-04T06:15:35.553Z,12.3
2023-05-04T06:17:34.155Z,18.8
2023-05-04T06:19:34.875Z,18.1
2023-05-04T06:21:33.645Z,13.7
2023-05-04T06:23:33.595Z,17.0
2023-05-04T06:25:32.845Z,14.3
2023-05-04T06:27:32.851Z,15.5
2023-05-04T06:29:32.298Z,16.8
2023-05-04T06:31:32.106Z,17.0
2023-05-04T06:33:31.766Z,16.3
2023-05-04T06:37:31.344Z,11.8
2023-05-04T06:39:31.109Z,12.6
2023-05-04T06:41:30.683Z,13.7
2023-05-04T06:43:31.324Z,17.2
2023-05-04T06:45:32.751Z,13.6
2023-05-04T06:47:29.987Z,13.6
2023-05-04T06:49:30.590Z,16.1
2023-05-04T06:51:29.734Z,14.3
2023-05-04T06:53:29.301Z,13.0
2023-05-04T06:55:29.433Z,14.1
2023-05-04T06:57:29.336Z,12.0
2023-05-04T06:59:28.346Z,12.0
2023-05-04T07:01:28.242Z,14.8
2023-05-04T07:03:27.895Z,14.2
2023-05-04T07:05:28.004Z,13.2
2023-05-04T07:07:27.338Z,13.7
2023-05-04T07:09:27.136Z,10.5
2023-05-04T07:11:27.676Z,12.5
2023-05-04T07:13:26.745Z,11.9
2023-05-04T07:15:26.562Z,10.9
2023-05-04T07:17:26.250Z,10.0
2023-05-04T07:19:26.092Z,12.4
2023-05-04T07:21:28.284Z,10.2
2023-05-04T07:23:25.525Z,13.9
2023-05-04T07:25:26.102Z,11.8
2023-05-04T07:27:25.274Z,13.3
2023-05-04T07:29:25.488Z,11.3
2023-05-04T07:31:24.793Z,11.2
2023-05-04T07:33:25.488Z,12.6
2023-05-04T07:35:24.431Z,12.1
2023-05-04T07:37:24.106Z,17.2
2023-05-04T07:39:23.948Z,12.7
2023-05-04T07:41:23.917Z,12.9
2023-05-04T07:43:23.611Z,15.1
2023-05-04T07:47:24.689Z,11.0
2023-05-04T07:49:23.056Z,11.1
2023-05-04T07:52:16.193Z,12.1
2023-05-04T07:53:24.435Z,10.1
2023-05-04T07:55:24.119Z,13.9
2023-05-04T07:57:22.164Z,9.4
2023-05-04T07:59:22.015Z,16.1
2023-05-04T08:01:21.848Z,10.4
2023-05-04T08:03:21.689Z,12.6
2023-05-04T08:05:21.510Z,10.9
2023-05-04T08:07:21.642Z,12.4
2023-05-04T08:09:21.071Z,9.5
2023-05-04T08:11:21.403Z,11.9
2023-05-04T08:13:20.656Z,16.8
2023-05-04T08:15:21.271Z,11.0
2023-05-04T08:17:20.343Z,9.9
2023-05-04T08:19:20.746Z,10.7
2023-05-04T08:21:19.971Z,12.9
2023-05-04T08:23:20.404Z,13.5
2023-05-04T08:27:19.369Z,12.3
2023-05-04T08:29:19.179Z,9.2
2023-05-04T08:31:20.361Z,11.6
2023-05-04T08:33:18.984Z,14.3
2023-05-04T08:35:18.700Z,10.4
2023-05-04T08:37:19.256Z,9.9
2023-05-04T08:39:18.388Z,10.3
2023-05-04T08:41:18.352Z,10.8
2023-05-04T08:45:18.430Z,11.5
2023-05-04T08:47:17.830Z,9.6
2023-05-04T08:49:17.650Z,11.1
2023-05-04T08:51:18.364Z,10.0
2023-05-04T08:53:20.406Z,7.4
2023-05-04T08:55:17.663Z,12.6
2023-05-04T08:57:17.436Z,11.0
2023-05-04T08:59:18.899Z,10.7
2023-05-04T09:01:18.221Z,9.0
2023-05-04T09:03:18.068Z,9.0
2023-05-04T09:07:17.480Z,8.4
2023-05-04T09:11:15.992Z,8.6
2023-05-04T09:13:16.145Z,9.8
2023-05-04T09:15:16.516Z,8.2
2023-05-04T09:16:43.742Z,8.2
2023-05-04T09:19:16.989Z,7.7
2023-05-04T09:21:15.820Z,9.3
2023-05-04T09:25:15.283Z,8.7
2023-05-04T09:27:16.927Z,10.7
2023-05-04T09:29:15.117Z,8.1
2023-05-04T09:31:14.787Z,9.6
2023-05-04T09:33:15.252Z,9.8
2023-05-04T09:35:25.649Z,10.8
2023-05-04T09:37:14.650Z,7.9
2023-05-04T09:39:15.157Z,9.2
2023-05-04T09:41:14.212Z,9.3
2023-05-04T09:43:14.426Z,9.3
2023-05-04T09:45:14.909Z,9.6
2023-05-04T09:47:16.427Z,12.1
2023-05-04T09:49:14.158Z,10.0
2023-05-04T09:51:15.139Z,8.3
2023-05-04T09:53:15.491Z,9.8
2023-05-04T09:55:15.448Z,10.1
2023-05-04T09:57:14.630Z,9.0
2023-05-04T09:59:14.686Z,10.0
2023-05-04T10:01:14.568Z,10.5
2023-05-04T10:03:14.003Z,9.5
2023-05-04T10:05:15.732Z,10.6
2023-05-04T10:07:13.314Z,8.9
2023-05-04T10:09:13.114Z,11.0
2023-05-04T10:11:14.015Z,9.5
2023-05-04T10:13:12.926Z,10.0
2023-05-04T10:15:15.058Z,11.0
2023-05-04T10:17:22.510Z,10.2
2023-05-04T10:19:29.599Z,9.9
2023-05-04T10:21:27.889Z,11.2
2023-05-04T10:23:31.608Z,10.5
2023-05-04T10:27:15.214Z,10.1
2023-05-04T10:29:21.403Z,9.9
2023-05-04T10:33:12.418Z,9.8
2023-05-04T10:35:13.250Z,9.0
2023-05-04T10:37:16.702Z,9.5
2023-05-04T10:39:19.978Z,10.4
2023-05-04T10:41:12.489Z,10.7
2023-05-04T10:43:21.449Z,11.4
2023-05-04T10:45:12.673Z,14.1
2023-05-04T10:47:11.707Z,9.1
2023-05-04T10:49:15.364Z,12.0
2023-05-04T10:51:19.799Z,11.2
2023-05-04T10:55:12.852Z,9.8
2023-05-04T10:59:11.722Z,9.1
2023-05-04T11:01:11.801Z,9.7
2023-05-04T11:03:11.814Z,11.1
2023-05-04T11:05:17.059Z,9.5
2023-05-04T11:07:11.268Z,9.3
2023-05-04T11:09:12.667Z,8.7
2023-05-04T11:11:11.257Z,12.7
2023-05-04T11:13:11.508Z,10.7
2023-05-04T11:15:11.591Z,11.8
2023-05-04T11:19:11.530Z,8.3
2023-05-04T11:21:11.339Z,9.1
2023-05-04T11:23:15.273Z,11.1
2023-05-04T11:25:11.146Z,11.9
2023-05-04T11:27:19.693Z,7.2
2023-05-04T11:29:11.783Z,8.2
2023-05-04T11:31:11.672Z,6.4
2023-05-04T11:33:12.530Z,9.4
2023-05-04T11:35:14.769Z,8.2
2023-05-04T11:37:12.110Z,10.6
2023-05-04T11:39:10.960Z,11.8
2023-05-04T11:43:11.659Z,11.0
2023-05-04T11:45:16.158Z,9.6
2023-05-04T11:47:12.202Z,7.2
2023-05-04T11:49:11.327Z,8.7
2023-05-04T11:51:10.839Z,8.5
2023-05-04T11:53:12.784Z,8.5
2023-05-04T11:55:12.466Z,9.0
2023-05-04T11:57:21.220Z,9.4
2023-05-04T12:01:10.729Z,21.3
2023-05-04T12:03:12.565Z,9.1
2023-05-04T12:05:12.695Z,9.9
2023-05-04T12:07:10.861Z,13.3
2023-05-04T12:09:10.649Z,9.6
2023-05-04T12:11:12.114Z,15.4
2023-05-04T12:13:18.039Z,11.1
2023-05-04T12:15:10.793Z,11.4
2023-05-04T12:17:10.568Z,8.1
2023-05-04T12:19:11.703Z,10.6
2023-05-04T12:21:12.297Z,11.1
2023-05-04T12:23:10.817Z,9.5
2023-05-04T12:25:10.720Z,6.6
2023-05-04T12:27:12.168Z,10.1
2023-05-04T12:29:10.667Z,9.4
2023-05-04T12:31:10.657Z,6.8
2023-05-04T12:33:10.835Z,8.9
2023-05-04T12:35:10.934Z,11.0
2023-05-04T12:37:10.737Z,7.6
2023-05-04T12:39:10.893Z,9.4
2023-05-04T12:41:10.962Z,8.0
2023-05-04T12:43:11.155Z,10.1
2023-05-04T12:45:11.234Z,10.4
2023-05-04T12:47:10.924Z,8.7
2023-05-04T12:49:13.200Z,7.5
2023-05-04T12:51:10.830Z,7.7
2023-05-04T12:53:11.029Z,9.7
2023-05-04T12:55:11.217Z,8.0
2023-05-04T12:57:11.380Z,9.5
2023-05-04T12:59:10.966Z,7.8
2023-05-04T13:01:11.025Z,6.8
2023-05-04T13:03:12.051Z,7.8
2023-05-04T13:05:12.008Z,9.6
2023-05-04T13:07:13.689Z,6.4
2023-05-04T13:09:11.931Z,8.5
2023-05-04T13:11:11.130Z,6.7
2023-05-04T13:13:12.124Z,7.3
2023-05-04T13:15:11.904Z,8.9
2023-05-04T13:17:11.284Z,5.0
2023-05-04T13:19:11.462Z,7.0
2023-05-04T13:21:11.950Z,6.0
2023-05-04T13:23:11.352Z,10.5
2023-05-04T13:25:11.617Z,7.4
2023-05-04T13:31:11.700Z,6.3
2023-05-04T13:33:25.031Z,3.3
2023-05-04T13:35:11.954Z,3.6
2023-05-04T13:37:15.576Z,5.6
2023-05-04T13:41:11.877Z,5.1
2023-05-04T13:43:11.961Z,5.7
2023-05-04T13:47:12.771Z,5.2
2023-05-04T13:49:12.060Z,4.1
2023-05-04T13:53:12.088Z,4.0
2023-05-04T13:59:12.206Z,5.8
2023-05-04T14:01:12.325Z,3.9
2023-05-04T14:03:12.376Z,3.6
2023-05-04T14:09:12.640Z,4.3
2023-05-04T14:11:12.603Z,3.7
2023-05-04T14:15:12.946Z,3.0
2023-05-04T14:17:12.725Z,4.1
2023-05-04T14:19:12.814Z,4.2
2023-05-04T14:21:13.043Z,4.7
2023-05-04T14:29:13.385Z,5.0
2023-05-04T14:33:13.539Z,5.1
2023-05-04T14:35:15.292Z,5.9
2023-05-04T14:37:13.727Z,5.8
2023-05-04T14:41:14.360Z,5.4
2023-05-04T14:43:13.737Z,3.8
2023-05-04T14:45:14.197Z,5.5
2023-05-04T14:47:13.961Z,6.1
2023-05-04T14:51:20.672Z,4.2
2023-05-04T14:53:14.244Z,4.0
2023-05-04T14:55:14.363Z,4.3
2023-05-04T14:57:14.448Z,5.4
2023-05-04T14:59:14.468Z,2.9
2023-05-04T15:03:14.892Z,3.9
2023-05-04T15:05:14.769Z,4.4
2023-05-04T15:07:15.511Z,4.7
2023-05-04T15:09:14.918Z,3.9
2023-05-04T15:11:15.050Z,3.5
2023-05-04T15:13:16.762Z,4.1
2023-05-04T15:17:16.501Z,3.9
2023-05-04T15:21:15.696Z,5.7
2023-05-04T15:23:15.787Z,5.0
2023-05-04T15:25:16.060Z,4.4
2023-05-04T15:27:15.801Z,7.9
2023-05-04T15:29:16.063Z,5.8
2023-05-04T15:31:16.997Z,7.1
2023-05-04T15:33:16.244Z,5.9
2023-05-04T15:35:16.317Z,5.4
2023-05-04T15:37:16.283Z,4.3
2023-05-04T15:39:16.377Z,5.6
2023-05-04T15:45:16.900Z,4.5
2023-05-04T15:47:16.774Z,3.4
2023-05-04T15:49:16.904Z,3.4
2023-05-04T15:51:17.880Z,4.1
2023-05-04T15:53:17.124Z,4.9
2023-05-04T15:57:17.270Z,3.5
2023-05-04T15:59:17.361Z,4.3
2023-05-04T16:01:17.447Z,4.0
2023-05-04T16:05:17.930Z,4.9
2023-05-04T16:09:19.994Z,5.4
2023-05-04T16:11:18.046Z,3.8
2023-05-04T16:13:18.495Z,6.0
2023-05-04T16:15:18.353Z,3.6
2023-05-04T16:17:18.321Z,5.4
2023-05-04T16:19:18.293Z,6.1
2023-05-04T16:21:18.598Z,4.6
2023-05-04T16:23:18.483Z,3.7
2023-05-04T16:25:18.638Z,3.4
2023-05-04T16:29:18.866Z,3.7
2023-05-04T16:31:18.857Z,4.1
2023-05-04T16:33:18.959Z,3.8
2023-05-04T16:35:19.630Z,6.4
2023-05-04T16:37:19.120Z,5.0
2023-05-04T16:39:19.351Z,3.2
2023-05-04T16:41:19.990Z,3.7
2023-05-04T16:43:19.503Z,5.5
2023-05-04T16:45:19.944Z,5.0
2023-05-04T16:49:20.751Z,4.7
2023-05-04T16:51:19.768Z,4.3
2023-05-04T16:53:20.137Z,4.3
2023-05-04T16:55:20.060Z,6.0
2023-05-04T16:57:20.188Z,5.2
2023-05-04T17:01:20.447Z,3.5
2023-05-04T17:03:20.633Z,4.7
2023-05-04T17:05:20.452Z,4.7
2023-05-04T17:07:20.476Z,7.7
2023-05-04T17:09:20.545Z,6.8
2023-05-04T17:11:22.748Z,7.3
2023-05-04T17:13:20.777Z,4.3
2023-05-04T17:15:21.126Z,10.3
2023-05-04T17:17:20.883Z,4.0
2023-05-04T17:21:21.232Z,6.0
2023-05-04T17:23:21.337Z,5.5
2023-05-04T17:25:21.415Z,5.6
2023-05-04T17:27:21.354Z,6.6
2023-05-04T17:29:21.650Z,5.8
2023-05-04T17:31:22.052Z,5.2
2023-05-04T17:33:22.772Z,5.1
2023-05-04T17:35:25.702Z,5.6
2023-05-04T17:37:21.850Z,4.8
2023-05-04T17:39:22.043Z,22.4
2023-05-04T17:41:23.779Z,24.2
2023-05-04T17:43:22.153Z,14.2
2023-05-04T17:45:22.499Z,5.7
2023-05-04T17:49:22.607Z,10.5
2023-05-04T17:51:23.040Z,7.5
2023-05-04T17:53:22.894Z,6.5
2023-05-04T17:55:23.533Z,22.9
2023-05-04T17:57:22.785Z,13.7
2023-05-04T17:59:22.798Z,7.6
2023-05-04T18:01:23.078Z,8.8
2023-05-04T18:03:23.166Z,10.5
2023-05-04T18:05:24.121Z,10.2
2023-05-04T18:07:23.161Z,7.1
2023-05-04T18:09:23.206Z,7.5
2023-05-04T18:11:23.690Z,6.0
2023-05-04T18:13:23.401Z,23.2
2023-05-04T18:15:23.435Z,35.7
2023-05-04T18:17:25.378Z,11.7
2023-05-04T18:19:25.593Z,7.1
2023-05-04T18:21:23.748Z,5.7
2023-05-04T18:23:23.854Z,6.4
2023-05-04T18:27:24.097Z,3.8
2023-05-04T18:29:24.046Z,5.7
2023-05-04T18:31:24.339Z,5.4
2023-05-04T18:33:24.233Z,8.9
2023-05-04T18:35:24.291Z,23.6
2023-05-04T18:37:24.886Z,8.3
2023-05-04T18:39:24.468Z,5.6
2023-05-04T18:41:24.733Z,11.2
2023-05-04T18:43:24.612Z,11.6
2023-05-04T18:45:24.957Z,9.3
2023-05-04T18:47:24.732Z,6.7
2023-05-04T18:49:24.809Z,6.1
2023-05-04T18:51:25.301Z,7.0
2023-05-04T18:53:25.432Z,5.9
2023-05-04T18:55:25.730Z,6.3
2023-05-04T18:57:25.181Z,7.9
2023-05-04T18:59:25.089Z,11.9
2023-05-04T19:01:26.715Z,10.2
2023-05-04T19:03:25.219Z,23.8
2023-05-04T19:05:25.322Z,14.5
2023-05-04T19:07:25.211Z,17.7
2023-05-04T19:09:25.439Z,14.2
2023-05-04T19:11:25.536Z,22.6
2023-05-04T19:13:25.437Z,7.6
2023-05-04T19:15:25.810Z,5.7
2023-05-04T19:17:25.411Z,13.8
2023-05-04T19:19:26.495Z,8.3
2023-05-04T19:21:26.747Z,5.6
2023-05-04T19:23:25.913Z,31.6
2023-05-04T19:27:25.540Z,14.4
2023-05-04T19:29:25.625Z,62.2
2023-05-04T19:31:25.690Z,10.1
2023-05-04T19:33:33.451Z,10.1
2023-05-04T19:35:25.913Z,9.2
2023-05-04T19:37:25.789Z,7.9
2023-05-04T19:39:25.746Z,11.2
2023-05-04T19:41:25.862Z,7.2
2023-05-04T19:43:25.776Z,7.1
2023-05-04T19:45:25.903Z,7.2
2023-05-04T19:47:27.452Z,6.8
2023-05-04T19:49:25.996Z,5.3
2023-05-04T19:51:26.990Z,10.1
2023-05-04T19:53:26.144Z,9.3
2023-05-04T19:57:25.883Z,8.0
2023-05-04T19:59:25.929Z,7.4
2023-05-04T20:01:26.138Z,6.7
2023-05-04T20:03:26.176Z,8.1
2023-05-04T20:05:26.615Z,6.1
2023-05-04T20:07:26.213Z,6.3
2023-05-04T20:09:27.933Z,7.5
2023-05-04T20:11:26.233Z,6.4
2023-05-04T20:13:26.271Z,6.3
2023-05-04T20:15:26.142Z,5.7
2023-05-04T20:17:26.583Z,5.1
2023-05-04T20:19:26.509Z,5.8
2023-05-04T20:23:26.188Z,5.4
2023-05-04T20:25:26.574Z,5.4
2023-05-04T20:29:26.381Z,6.1
2023-05-04T20:31:26.287Z,5.7
2023-05-04T20:33:26.194Z,5.6
2023-05-04T20:35:26.520Z,5.6
2023-05-04T20:37:26.165Z,6.2
2023-05-04T20:39:26.181Z,8.2
2023-05-04T20:41:26.165Z,8.3
2023-05-04T20:43:26.243Z,7.2
2023-05-04T20:45:26.376Z,7.4
2023-05-04T20:49:26.328Z,10.6
2023-05-04T20:51:26.921Z,7.6
2023-05-04T20:53:27.647Z,6.3
2023-05-04T20:55:26.591Z,6.7
2023-05-04T20:57:26.249Z,7.4
2023-05-04T20:59:26.192Z,8.2
2023-05-04T21:01:26.300Z,6.6
2023-05-04T21:03:26.335Z,5.9
2023-05-04T21:07:26.978Z,7.2
2023-05-04T21:09:26.978Z,6.0
2023-05-04T21:11:26.110Z,10.3
2023-05-04T21:13:26.194Z,8.3
2023-05-04T21:15:26.070Z,6.6
2023-05-04T21:17:26.070Z,6.3
2023-05-04T21:19:26.316Z,7.0
2023-05-04T21:21:26.099Z,7.3
2023-05-04T21:23:25.974Z,6.9
2023-05-04T21:25:26.096Z,8.1
2023-05-04T21:27:25.853Z,6.9
2023-05-04T21:29:25.908Z,8.0
2023-05-04T21:31:25.847Z,9.0
2023-05-04T21:33:25.900Z,8.3
2023-05-04T21:35:29.635Z,7.4
2023-05-04T21:37:25.920Z,8.0
2023-05-04T21:39:25.774Z,11.6
2023-05-04T21:43:25.673Z,9.0
2023-05-04T21:45:25.785Z,6.1
2023-05-04T21:47:26.156Z,8.1
2023-05-04T21:49:26.163Z,8.4
2023-05-04T21:51:25.986Z,6.9
2023-05-04T21:53:25.864Z,6.8
2023-05-04T21:55:25.642Z,9.1
2023-05-04T21:57:25.621Z,6.5
2023-05-04T21:59:25.614Z,8.5
2023-05-04T22:01:25.775Z,8.9
2023-05-04T22:05:25.744Z,7.3
2023-05-04T22:07:25.805Z,7.1
2023-05-04T22:11:25.706Z,7.4
2023-05-04T22:13:26.191Z,26.3
2023-05-04T22:17:25.770Z,67.6
2023-05-04T22:19:25.757Z,81.7
2023-05-04T22:21:25.678Z,49.2
2023-05-04T22:23:25.454Z,29.7
2023-05-04T22:25:25.701Z,43.5
2023-05-04T22:27:25.411Z,92.4
2023-05-04T22:29:25.257Z,39.5
2023-05-04T22:31:25.318Z,20.6
2023-05-04T22:33:25.195Z,11.9
2023-05-04T22:35:25.442Z,9.1
2023-05-04T22:41:25.321Z,9.5
2023-05-04T22:43:25.604Z,7.7
2023-05-04T22:45:25.041Z,9.1
2023-05-04T22:47:25.085Z,7.6
2023-05-04T22:49:24.892Z,8.9
2023-05-04T22:51:24.710Z,8.4
2023-05-04T22:55:24.885Z,8.3
2023-05-04T22:57:24.969Z,7.8
2023-05-04T23:01:26.575Z,8.9
2023-05-04T23:03:24.771Z,10.6
2023-05-04T23:05:25.015Z,9.3
2023-05-04T23:07:24.880Z,9.9
2023-05-04T23:09:24.785Z,8.8
2023-05-04T23:11:24.462Z,9.7
2023-05-04T23:13:24.900Z,8.8
2023-05-04T23:15:24.411Z,9.7
2023-05-04T23:17:24.548Z,9.5
2023-05-04T23:19:24.358Z,9.2
2023-05-04T23:23:24.250Z,11.9
2023-05-04T23:25:24.643Z,10.6
2023-05-04T23:27:24.156Z,12.1
2023-05-04T23:29:24.530Z,13.0
2023-05-04T23:31:24.183Z,12.7
2023-05-04T23:33:23.972Z,13.0
2023-05-04T23:37:23.971Z,14.0
2023-05-04T23:39:23.801Z,16.4
2023-05-04T23:41:23.727Z,15.8
2023-05-04T23:43:23.709Z,14.2
2023-05-04T23:45:23.592Z,18.0
2023-05-04T23:47:23.541Z,14.3
2023-05-04T23:49:23.496Z,16.3
2023-05-04T23:53:23.894Z,14.0
2023-05-04T23:55:23.272Z,13.8
2023-05-04T23:57:23.308Z,15.8
2023-05-04T23:59:23.374Z,14.1
